Time;durP1;ratioP1;P1;durP2;ratioP2;P2;SDS_P1;SDS_P2;PMS_P1;PMS_P2;Temp;Humidity;BMP_temperature;BMP_pressure;BME280_temperature;BME280_humidity;BME280_pressure;Samples;Min_cycle;Max_cycle;Signal;HPM_P1;HPM_P2
2021/04/15 00:01:20;;;;;;;8.73;7.47;;;2.80;99.90;;;;;;5107799;28;20208;-52
2021/04/15 00:03:46;;;;;;;7.60;6.90;;;2.60;99.90;;;;;;5101333;28;20214;-53
2021/04/15 00:06:17;;;;;;;8.40;7.38;;;2.50;99.90;;;;;;5107939;28;20224;-53
2021/04/15 00:08:45;;;;;;;7.90;6.38;;;2.80;99.90;;;;;;5099635;28;20195;-53
2021/04/15 00:11:13;;;;;;;9.38;7.03;;;2.50;99.90;;;;;;5102883;28;20689;-53
2021/04/15 00:13:44;;;;;;;9.63;7.30;;;2.90;99.90;;;;;;5106036;28;20183;-53
2021/04/15 00:16:11;;;;;;;7.05;6.22;;;2.70;99.90;;;;;;5108103;28;20214;-53
2021/04/15 00:18:37;;;;;;;8.45;7.57;;;2.90;99.90;;;;;;5107717;28;20210;-53
2021/04/15 00:21:05;;;;;;;9.27;6.90;;;2.70;99.90;;;;;;5102494;28;20203;-53
2021/04/15 00:23:31;;;;;;;8.60;7.70;;;2.70;99.90;;;;;;5111793;28;20859;-53
2021/04/15 00:25:57;;;;;;;11.07;7.38;;;2.90;99.90;;;;;;5111015;28;20228;-53
2021/04/15 00:28:23;;;;;;;9.30;7.70;;;2.60;99.90;;;;;;5111774;28;20183;-53
2021/04/15 00:30:49;;;;;;;10.30;8.33;;;2.50;99.90;;;;;;5111418;28;20472;-53
2021/04/15 00:33:16;;;;;;;12.52;9.10;;;2.50;99.90;;;;;;5111628;28;20933;-53
2021/04/15 00:35:42;;;;;;;10.60;8.45;;;2.50;99.90;;;;;;5111402;28;20190;-54
2021/04/15 00:38:09;;;;;;;11.00;8.70;;;2.30;99.90;;;;;;5111279;28;20192;-53
2021/04/15 00:40:38;;;;;;;10.90;8.50;;;2.50;99.90;;;;;;5111221;28;20476;-53
2021/04/15 00:43:04;;;;;;;10.80;8.52;;;2.50;99.90;;;;;;5111176;28;20192;-53
2021/04/15 00:45:34;;;;;;;11.00;9.30;;;2.60;99.90;;;;;;5110631;28;20218;-53
2021/04/15 00:48:28;;;;;;;8.90;7.95;;;2.40;99.90;;;;;;5111551;28;20179;-52
2021/04/15 00:51:17;;;;;;;9.50;8.52;;;2.30;99.90;;;;;;5128124;27;20735;-53
2021/04/15 00:53:50;;;;;;;10.35;8.15;;;2.10;99.90;;;;;;5111137;28;20194;-53
2021/04/15 00:56:16;;;;;;;9.73;7.93;;;2.30;99.90;;;;;;5110939;28;20654;-53
2021/04/15 00:58:44;;;;;;;10.77;8.52;;;2.40;99.90;;;;;;5110633;28;20195;-54
2021/04/15 01:01:10;;;;;;;9.18;8.23;;;2.30;99.90;;;;;;5110894;28;20192;-53
2021/04/15 01:03:36;;;;;;;11.27;8.60;;;2.10;99.90;;;;;;5110946;28;20186;-53
2021/04/15 01:06:04;;;;;;;12.00;10.57;;;2.00;99.90;;;;;;5110917;28;20455;-53
2021/04/15 01:08:30;;;;;;;11.05;8.50;;;1.90;99.90;;;;;;5111037;28;20171;-53
2021/04/15 01:11:28;;;;;;;10.83;9.67;;;2.00;99.90;;;;;;5110637;28;20289;-53
2021/04/15 01:14:09;;;;;;;12.32;8.98;;;2.00;99.90;;;;;;5110464;28;20282;-53
2021/04/15 01:16:57;;;;;;;9.75;8.15;;;2.10;99.90;;;;;;5110581;28;20180;-53
2021/04/15 01:20:21;;;;;;;11.73;9.50;;;2.10;99.90;;;;;;5127866;27;20558;-53
2021/04/15 01:22:49;;;;;;;13.57;9.93;;;2.10;99.90;;;;;;5067490;28;20242;-54
2021/04/15 01:25:42;;;;;;;11.65;9.75;;;2.00;99.90;;;;;;5052362;28;20699;-53
2021/04/15 01:28:38;;;;;;;10.27;9.02;;;1.80;99.90;;;;;;5089759;28;20192;-53
2021/04/15 01:31:40;;;;;;;12.13;9.05;;;2.00;99.90;;;;;;5107664;28;20211;-54
2021/04/15 01:34:16;;;;;;;10.70;9.10;;;2.00;99.90;;;;;;5108052;28;20188;-54
2021/04/15 01:36:49;;;;;;;10.10;8.98;;;1.80;99.90;;;;;;5111055;28;20188;-54
2021/04/15 01:39:26;;;;;;;11.30;9.75;;;1.80;99.90;;;;;;5110795;28;20675;-54
2021/04/15 01:41:57;;;;;;;14.60;9.23;;;1.70;99.90;;;;;;5110438;28;20211;-54
2021/04/15 01:44:44;;;;;;;9.70;8.30;;;1.80;99.90;;;;;;5110400;28;20294;-54
2021/04/15 01:47:15;;;;;;;11.48;9.25;;;1.80;99.90;;;;;;5110130;28;20218;-53
2021/04/15 01:49:45;;;;;;;10.90;9.23;;;1.70;99.90;;;;;;5106695;28;20179;-53
2021/04/15 01:52:13;;;;;;;12.07;10.38;;;1.90;99.90;;;;;;5110091;28;20297;-54
2021/04/15 01:55:08;;;;;;;13.55;10.85;;;1.80;99.90;;;;;;5110030;28;20188;-54
2021/04/15 01:58:10;;;;;;;11.43;10.32;;;1.90;99.90;;;;;;5105695;28;20200;-53
2021/04/15 02:00:39;;;;;;;11.32;9.32;;;1.70;99.90;;;;;;5099937;28;20650;-53
2021/04/15 02:03:26;;;;;;;13.57;9.88;;;1.80;99.90;;;;;;5109650;28;20646;-53
2021/04/15 02:05:57;;;;;;;14.32;9.65;;;1.80;99.90;;;;;;5105372;28;20207;-54
2021/04/15 02:08:27;;;;;;;12.77;9.95;;;1.60;99.90;;;;;;5104355;28;20560;-53
2021/04/15 02:10:58;;;;;;;12.20;9.70;;;1.50;99.90;;;;;;5107446;28;20234;-53
2021/04/15 02:13:26;;;;;;;11.98;9.52;;;1.80;99.90;;;;;;5107748;28;20666;-53
2021/04/15 02:15:57;;;;;;;11.93;10.45;;;1.70;99.90;;;;;;5108408;28;20426;-53
2021/04/15 02:18:35;;;;;;;11.45;9.00;;;1.60;99.90;;;;;;5109867;28;20184;-53
2021/04/15 02:21:23;;;;;;;10.98;8.93;;;1.70;99.90;;;;;;5109607;28;20199;-52
2021/04/15 02:23:54;;;;;;;12.43;10.23;;;1.80;99.90;;;;;;5109765;28;20192;-53
2021/04/15 02:26:31;;;;;;;10.55;9.35;;;1.60;99.90;;;;;;5107983;28;20642;-53
2021/04/15 02:29:07;;;;;;;14.15;10.70;;;1.50;99.90;;;;;;5104491;28;20187;-53
2021/04/15 02:31:47;;;;;;;13.48;10.18;;;1.50;99.90;;;;;;5101523;28;20211;-53
2021/04/15 02:34:24;;;;;;;13.13;10.30;;;1.60;99.90;;;;;;5108889;28;20650;-53
2021/04/15 02:36:55;;;;;;;12.75;10.10;;;1.70;99.90;;;;;;5109159;28;20322;-53
2021/04/15 02:39:29;;;;;;;12.27;9.60;;;1.80;99.90;;;;;;5108903;28;20655;-53
2021/04/15 02:41:56;;;;;;;14.60;11.23;;;1.70;99.90;;;;;;5110078;28;20673;-53
2021/04/15 02:44:28;;;;;;;12.05;10.25;;;1.70;99.90;;;;;;5108557;28;20208;-53
2021/04/15 02:46:56;;;;;;;15.48;11.40;;;1.30;99.90;;;;;;5104357;28;20179;-53
2021/04/15 02:49:26;;;;;;;12.15;9.93;;;1.70;99.90;;;;;;5109670;28;20267;-53
2021/04/15 02:51:56;;;;;;;13.02;9.93;;;1.60;99.90;;;;;;5103787;28;20199;-53
2021/04/15 02:54:32;;;;;;;12.40;10.65;;;1.50;99.90;;;;;;5108171;28;20187;-54
2021/04/15 02:57:05;;;;;;;13.60;10.20;;;1.30;99.90;;;;;;5106699;28;20183;-53
2021/04/15 02:59:46;;;;;;;12.80;11.25;;;1.40;99.90;;;;;;5108858;28;20199;-53
2021/04/15 03:02:18;;;;;;;15.88;10.05;;;1.30;99.90;;;;;;5108752;28;20195;-53
2021/04/15 03:04:51;;;;;;;14.38;10.80;;;1.20;99.90;;;;;;5108625;28;20202;-53
2021/04/15 03:07:18;;;;;;;13.80;10.40;;;1.30;99.90;;;;;;5108756;28;20294;-53
2021/04/15 03:09:48;;;;;;;14.32;9.77;;;1.30;99.90;;;;;;5108247;28;20186;-53
2021/04/15 03:12:29;;;;;;;11.80;9.60;;;1.30;99.90;;;;;;5108048;28;20199;-53
2021/04/15 03:15:07;;;;;;;11.93;9.73;;;1.40;99.90;;;;;;5108049;28;20183;-53
2021/04/15 03:17:37;;;;;;;11.65;9.95;;;1.20;99.90;;;;;;5125231;27;20222;-53
2021/04/15 03:20:14;;;;;;;12.82;10.30;;;1.20;99.90;;;;;;5108245;28;20702;-53
2021/04/15 03:22:51;;;;;;;13.93;11.35;;;1.10;99.90;;;;;;5108232;28;20192;-53
2021/04/15 03:25:17;;;;;;;13.85;10.90;;;1.30;99.90;;;;;;5108080;28;20264;-54
2021/04/15 03:28:14;;;;;;;13.65;10.40;;;1.10;99.90;;;;;;5108201;28;20179;-53
2021/04/15 03:30:46;;;;;;;14.63;10.48;;;1.30;99.90;;;;;;5108251;28;20215;-54
2021/04/15 03:33:21;;;;;;;14.52;11.38;;;1.10;99.90;;;;;;5107633;28;20191;-53
2021/04/15 03:36:11;;;;;;;13.52;11.38;;;1.20;99.90;;;;;;5108273;28;20226;-54
2021/04/15 03:38:49;;;;;;;16.40;11.30;;;1.20;99.90;;;;;;5107697;28;20675;-54
2021/04/15 03:41:23;;;;;;;14.80;11.70;;;1.30;99.90;;;;;;5107991;28;20634;-54
2021/04/15 03:43:57;;;;;;;13.57;11.90;;;1.30;99.90;;;;;;5100796;28;20207;-53
2021/04/15 03:46:32;;;;;;;15.80;12.90;;;0.90;99.90;;;;;;5088441;28;20184;-53
2021/04/15 03:49:04;;;;;;;12.98;11.13;;;1.10;99.90;;;;;;5108247;28;20175;-53
2021/04/15 03:51:37;;;;;;;14.30;10.10;;;1.00;99.90;;;;;;5108086;28;20237;-53
2021/04/15 03:54:12;;;;;;;12.07;10.75;;;1.20;99.90;;;;;;5107187;28;20494;-52
2021/04/15 03:56:44;;;;;;;15.93;12.13;;;1.20;99.90;;;;;;5107708;28;20187;-53
2021/04/15 03:59:40;;;;;;;11.35;9.70;;;1.10;99.90;;;;;;5107395;28;20223;-52
2021/04/15 04:02:12;;;;;;;13.43;10.88;;;1.30;99.90;;;;;;5108972;28;20267;-52
2021/04/15 04:05:06;;;;;;;12.30;10.13;;;1.20;99.90;;;;;;5107745;28;20284;-53
2021/04/15 04:07:37;;;;;;;12.32;11.02;;;1.00;99.90;;;;;;5107596;28;20179;-53
2021/04/15 04:10:14;;;;;;;15.10;11.13;;;1.20;99.90;;;;;;5106333;28;20210;-53
2021/04/15 04:12:57;;;;;;;13.70;10.27;;;1.00;99.90;;;;;;5107588;28;20247;-52
2021/04/15 04:15:30;;;;;;;12.73;10.50;;;1.30;99.90;;;;;;5107377;28;20186;-54
2021/04/15 04:18:01;;;;;;;14.55;11.00;;;1.20;99.90;;;;;;5100121;28;20210;-53
2021/04/15 04:20:30;;;;;;;13.88;10.90;;;1.20;99.90;;;;;;5107084;28;20188;-53
2021/04/15 04:23:25;;;;;;;12.45;10.00;;;1.30;99.90;;;;;;5107546;28;20199;-52
2021/04/15 04:26:03;;;;;;;12.65;10.63;;;1.20;99.90;;;;;;5088752;28;20235;-53
2021/04/15 04:28:43;;;;;;;14.50;9.95;;;1.00;99.90;;;;;;5106174;28;20214;-53
2021/04/15 04:31:21;;;;;;;15.85;11.55;;;1.00;99.90;;;;;;5101298;28;20226;-53
2021/04/15 04:33:50;;;;;;;13.38;10.77;;;1.10;99.90;;;;;;5107344;28;20193;-53
2021/04/15 04:36:18;;;;;;;11.30;10.13;;;1.00;99.90;;;;;;5107436;28;20218;-53
2021/04/15 04:38:45;;;;;;;15.48;10.65;;;1.00;99.90;;;;;;5104264;28;20750;-53
2021/04/15 04:41:17;;;;;;;16.73;11.23;;;1.00;99.90;;;;;;5107347;28;20340;-53
2021/04/15 04:43:48;;;;;;;12.77;11.07;;;0.90;99.90;;;;;;5103674;28;20287;-53
2021/04/15 04:46:41;;;;;;;11.00;9.80;;;1.00;99.90;;;;;;5102902;28;20207;-55
2021/04/15 04:49:35;;;;;;;11.98;10.00;;;1.00;99.90;;;;;;5105982;28;20634;-55
2021/04/15 04:52:00;;;;;;;14.63;10.18;;;1.00;99.90;;;;;;5107024;28;20204;-55
2021/04/15 04:54:27;;;;;;;12.20;10.50;;;1.00;99.90;;;;;;5107646;28;20176;-55
2021/04/15 04:57:05;;;;;;;12.68;11.30;;;0.80;99.90;;;;;;5107869;28;20183;-54
2021/04/15 04:59:40;;;;;;;13.30;10.27;;;0.80;99.90;;;;;;5103935;28;20191;-54
2021/04/15 05:02:05;;;;;;;13.75;11.82;;;1.10;99.90;;;;;;5100464;28;20231;-55
2021/04/15 05:04:35;;;;;;;13.23;11.60;;;1.10;99.90;;;;;;5105130;28;20235;-54
2021/04/15 05:07:05;;;;;;;19.98;11.65;;;0.90;99.90;;;;;;5106866;28;20503;-51
2021/04/15 05:09:38;;;;;;;13.50;10.55;;;1.20;99.90;;;;;;5103068;27;20191;-51
2021/04/15 05:12:12;;;;;;;12.43;10.75;;;1.10;99.90;;;;;;5102337;27;20231;-51
2021/04/15 05:14:39;;;;;;;14.80;10.95;;;1.00;99.90;;;;;;5116156;27;20186;-52
2021/04/15 05:17:15;;;;;;;12.57;11.10;;;1.00;99.90;;;;;;5104430;27;20183;-51
2021/04/15 05:19:41;;;;;;;15.57;10.20;;;1.20;99.90;;;;;;5101936;27;20195;-52
2021/04/15 05:22:12;;;;;;;12.83;10.80;;;1.10;99.90;;;;;;5097018;27;20234;-51
2021/04/15 05:24:56;;;;;;;11.57;9.35;;;1.00;99.90;;;;;;5099791;27;20210;-52
2021/04/15 05:27:23;;;;;;;12.80;9.60;;;1.30;99.90;;;;;;5104346;28;20552;-52
2021/04/15 05:29:55;;;;;;;14.00;10.32;;;1.00;99.90;;;;;;5104555;27;20183;-53
2021/04/15 05:32:21;;;;;;;13.77;11.63;;;1.40;99.90;;;;;;5106649;27;20207;-54
2021/04/15 05:34:51;;;;;;;13.33;11.03;;;1.50;99.90;;;;;;5102519;27;20195;-53
2021/04/15 05:37:24;;;;;;;12.90;10.55;;;1.60;99.90;;;;;;5105556;27;20437;-53
2021/04/15 05:39:52;;;;;;;12.40;10.13;;;1.60;99.90;;;;;;5102561;27;20191;-52
2021/04/15 05:42:17;;;;;;;13.73;12.10;;;1.50;99.90;;;;;;5103603;27;20198;-52
2021/04/15 05:44:47;;;;;;;18.37;11.33;;;1.50;99.90;;;;;;5104187;28;20291;-53
2021/04/15 05:47:22;;;;;;;12.75;10.02;;;1.30;99.90;;;;;;5099402;28;20180;-52
2021/04/15 05:50:10;;;;;;;11.48;10.23;;;1.50;99.90;;;;;;5109459;28;20237;-52
2021/04/15 05:52:40;;;;;;;18.90;10.88;;;1.70;99.90;;;;;;5106556;28;20294;-52
2021/04/15 05:55:08;;;;;;;13.85;9.98;;;1.70;99.90;;;;;;5110922;28;20180;-52
2021/04/15 05:57:44;;;;;;;12.57;9.38;;;1.80;99.90;;;;;;5100941;28;20199;-52
2021/04/15 06:00:23;;;;;;;14.23;10.93;;;2.10;99.90;;;;;;5103726;28;20186;-58
2021/04/15 06:03:25;;;;;;;9.95;8.90;;;2.30;99.90;;;;;;5099292;28;20278;-51
2021/04/15 06:06:07;;;;;;;13.45;8.98;;;2.60;99.90;;;;;;5090018;28;20242;-52
2021/04/15 06:08:36;;;;;;;10.02;8.50;;;2.90;99.90;;;;;;5105783;28;20662;-52
2021/04/15 06:11:26;;;;;;;8.77;7.88;;;3.20;99.90;;;;;;5108718;28;20258;-52
2021/04/15 06:13:57;;;;;;;10.68;8.63;;;3.60;99.90;;;;;;5124282;27;20183;-52
2021/04/15 06:16:33;;;;;;;9.10;8.07;;;3.60;99.90;;;;;;5105370;28;20562;-53
2021/04/15 06:19:09;;;;;;;8.60;7.80;;;3.60;99.90;;;;;;5104870;28;20183;-54
2021/04/15 06:21:42;;;;;;;9.20;7.88;;;3.80;99.90;;;;;;5100769;28;20230;-53
2021/04/15 06:24:13;;;;;;;10.20;8.63;;;4.00;99.90;;;;;;5125336;27;20211;-56
2021/04/15 06:26:45;;;;;;;9.48;7.88;;;4.20;99.90;;;;;;5106983;28;20215;-54
2021/04/15 06:29:26;;;;;;;10.25;7.85;;;4.00;99.90;;;;;;5103715;28;20589;-55
2021/04/15 06:31:56;;;;;;;9.05;8.15;;;4.10;99.90;;;;;;5105985;28;20709;-53
2021/04/15 06:34:23;;;;;;;8.38;7.43;;;4.10;99.90;;;;;;5106714;28;20650;-55
2021/04/15 06:37:03;;;;;;;7.75;6.95;;;4.10;99.90;;;;;;5109192;28;20638;-54
2021/04/15 06:40:10;;;;;;;8.35;6.72;;;4.50;99.30;;;;;;5102229;28;20236;-55
2021/04/15 06:42:47;;;;;;;9.95;7.43;;;4.60;98.80;;;;;;5057101;28;20218;-54
2021/04/15 06:45:47;;;;;;;6.78;6.05;;;4.60;98.60;;;;;;5105284;28;20200;-54
2021/04/15 06:48:42;;;;;;;6.00;5.30;;;5.20;97.40;;;;;;5104416;28;20176;-53
2021/04/15 06:51:39;;;;;;;5.95;5.45;;;5.00;96.90;;;;;;5108133;28;20211;-54
2021/04/15 06:54:26;;;;;;;9.27;6.18;;;5.70;96.10;;;;;;5104904;28;20185;-52
2021/04/15 06:57:07;;;;;;;10.15;5.45;;;5.90;94.70;;;;;;5107568;28;20234;-54
2021/04/15 07:00:06;;;;;;;7.07;6.40;;;7.00;93.40;;;;;;5106901;28;20191;-57
2021/04/15 07:03:09;;;;;;;5.88;5.13;;;8.40;91.00;;;;;;5100300;28;20207;-53
2021/04/15 07:05:44;;;;;;;6.10;5.35;;;10.20;79.90;;;;;;5105968;28;20200;-53
2021/04/15 07:08:43;;;;;;;5.80;5.05;;;10.90;76.80;;;;;;5106165;28;20181;-56
2021/04/15 07:11:29;;;;;;;5.47;4.97;;;12.90;68.60;;;;;;5107537;27;20196;-57
2021/04/15 07:14:04;;;;;;;5.95;5.20;;;15.10;58.90;;;;;;5084431;28;20179;-53
2021/04/15 07:16:54;;;;;;;8.18;5.10;;;16.40;56.00;;;;;;5104234;28;20190;-52
2021/04/15 07:19:22;;;;;;;5.93;5.32;;;16.40;50.40;;;;;;5107120;28;20175;-54
2021/04/15 07:22:18;;;;;;;5.55;4.75;;;17.70;50.30;;;;;;5105226;28;20231;-55
2021/04/15 07:25:02;;;;;;;7.43;4.78;;;18.80;47.10;;;;;;5097381;28;20248;-52
2021/04/15 07:27:52;;;;;;;5.90;5.40;;;18.80;44.90;;;;;;5108092;28;20260;-53
2021/04/15 07:30:58;;;;;;;5.40;4.90;;;17.40;45.30;;;;;;5124144;27;20211;-54
2021/04/15 07:34:03;;;;;;;5.32;4.82;;;18.80;44.70;;;;;;5103917;28;20207;-54
2021/04/15 07:37:01;;;;;;;8.77;5.40;;;17.20;45.30;;;;;;5097746;28;20247;-54
2021/04/15 07:39:45;;;;;;;7.43;4.57;;;17.80;45.00;;;;;;5099967;28;20202;-52
2021/04/15 07:42:14;;;;;;;6.45;4.80;;;17.70;45.00;;;;;;5103289;28;20434;-52
2021/04/15 07:44:58;;;;;;;5.80;4.25;;;18.50;44.00;;;;;;5105358;28;20207;-53
2021/04/15 07:47:44;;;;;;;7.53;5.25;;;19.40;41.50;;;;;;5102286;28;20458;-53
2021/04/15 07:50:22;;;;;;;5.32;4.45;;;18.20;42.20;;;;;;5102629;28;20605;-52
2021/04/15 07:52:56;;;;;;;7.75;4.90;;;18.00;42.30;;;;;;5098634;28;20175;-53
2021/04/15 07:55:33;;;;;;;6.13;5.22;;;18.90;41.60;;;;;;5104575;28;20231;-53
2021/04/15 07:58:06;;;;;;;6.80;5.15;;;19.00;40.90;;;;;;5107034;28;20199;-53
2021/04/15 08:00:59;;;;;;;5.68;5.07;;;19.00;41.80;;;;;;5100158;28;20191;-53
2021/04/15 08:03:43;;;;;;;5.60;5.10;;;19.30;40.40;;;;;;5103177;28;20531;-53
2021/04/15 08:06:27;;;;;;;5.82;5.32;;;18.50;41.40;;;;;;5101509;28;20489;-52
2021/04/15 08:09:20;;;;;;;5.50;5.00;;;18.50;41.70;;;;;;5105517;28;20188;-53
2021/04/15 08:12:18;;;;;;;7.15;6.07;;;18.00;42.00;;;;;;5105681;28;20539;-53
2021/04/15 08:15:19;;;;;;;8.05;6.10;;;17.00;43.10;;;;;;5106283;28;20231;-55
2021/04/15 08:18:02;;;;;;;6.45;5.15;;;16.80;43.50;;;;;;5099823;28;20790;-55
2021/04/15 08:21:09;;;;;;;8.05;5.30;;;17.70;43.10;;;;;;5099851;28;20184;-53
2021/04/15 08:23:43;;;;;;;5.70;4.97;;;18.20;41.80;;;;;;5083625;28;20530;-53
2021/04/15 08:26:30;;;;;;;6.18;5.32;;;18.80;42.30;;;;;;5101484;28;20214;-53
2021/04/15 08:29:14;;;;;;;5.78;5.20;;;18.60;42.00;;;;;;5097629;28;20211;-52
2021/04/15 08:32:09;;;;;;;5.70;5.15;;;18.60;41.10;;;;;;5106852;28;20211;-52
2021/04/15 08:34:39;;;;;;;6.63;6.03;;;18.00;41.50;;;;;;5106749;28;20187;-54
2021/04/15 08:37:37;;;;;;;5.55;5.07;;;17.40;42.30;;;;;;5107246;28;20186;-52
2021/04/15 08:40:21;;;;;;;5.88;5.38;;;17.60;43.60;;;;;;5104057;28;20272;-54
2021/04/15 08:43:07;;;;;;;5.85;5.32;;;17.80;42.40;;;;;;5104230;28;20185;-53
2021/04/15 08:45:41;;;;;;;5.88;5.38;;;19.10;41.10;;;;;;5091961;28;20243;-53
2021/04/15 08:48:45;;;;;;;8.98;5.57;;;17.00;41.90;;;;;;5102134;28;20175;-53
2021/04/15 08:51:48;;;;;;;6.13;5.43;;;18.30;42.70;;;;;;5106467;28;20207;-55
2021/04/15 08:54:51;;;;;;;5.68;4.55;;;18.50;41.40;;;;;;5108016;28;20184;-57
2021/04/15 08:57:43;;;;;;;6.90;5.82;;;19.00;39.80;;;;;;5107732;28;20747;-53
2021/04/15 09:00:30;;;;;;;5.85;5.25;;;18.10;40.30;;;;;;5088909;28;20189;-52
2021/04/15 09:03:05;;;;;;;4.90;4.50;;;18.10;41.20;;;;;;5109831;28;20179;-51
2021/04/15 09:06:00;;;;;;;6.32;5.35;;;18.90;40.40;;;;;;5104105;28;20495;-55
2021/04/15 09:08:40;;;;;;;7.22;4.97;;;19.70;38.60;;;;;;5101860;28;20262;-53
2021/04/15 09:11:08;;;;;;;5.30;4.90;;;19.50;38.30;;;;;;5108129;28;20216;-49
2021/04/15 09:13:43;;;;;;;5.47;5.00;;;19.90;37.70;;;;;;5107827;28;20179;-52
2021/04/15 09:16:32;;;;;;;5.53;5.13;;;18.40;38.10;;;;;;5110680;28;20519;-53
2021/04/15 09:19:03;;;;;;;7.85;5.90;;;18.80;38.50;;;;;;5104617;28;20306;-53
2021/04/15 09:21:54;;;;;;;6.25;5.65;;;18.50;39.90;;;;;;5110813;28;20232;-53
2021/04/15 09:24:26;;;;;;;7.18;5.32;;;17.50;39.70;;;;;;5111008;28;20689;-53
2021/04/15 09:27:14;;;;;;;7.30;4.82;;;16.60;41.80;;;;;;5110081;28;20180;-54
2021/04/15 09:30:12;;;;;;;5.03;4.57;;;15.90;41.60;;;;;;5107409;28;20597;-53
2021/04/15 09:32:56;;;;;;;4.80;4.40;;;16.00;42.20;;;;;;5105476;28;20204;-53
2021/04/15 09:35:59;;;;;;;4.70;4.30;;;15.20;43.50;;;;;;5104775;28;20219;-53
2021/04/15 09:38:53;;;;;;;6.47;4.50;;;15.20;44.50;;;;;;5105475;28;20187;-58
2021/04/15 09:41:36;;;;;;;5.60;4.55;;;15.30;44.60;;;;;;5101055;28;20721;-57
2021/04/15 09:44:40;;;;;;;5.00;4.60;;;15.40;42.90;;;;;;5103555;28;20505;-54
2021/04/15 09:47:40;;;;;;;11.25;4.50;;;15.20;43.80;;;;;;5109923;28;20537;-54
2021/04/15 09:50:21;;;;;;;5.20;3.88;;;16.90;42.70;;;;;;5109053;28;20181;-55
2021/04/15 09:53:09;;;;;;;5.90;4.53;;;17.50;40.80;;;;;;5105059;28;20381;-56
2021/04/15 09:56:13;;;;;;;5.50;4.10;;;17.90;40.10;;;;;;5106938;28;20654;-58
2021/04/15 09:59:07;;;;;;;4.05;3.55;;;18.20;38.50;;;;;;5102322;28;20613;-54
2021/04/15 10:01:48;;;;;;;5.05;3.75;;;16.90;38.10;;;;;;5106063;28;20603;-55
2021/04/15 10:04:33;;;;;;;4.10;3.70;;;16.30;40.20;;;;;;5109607;28;20297;-51
2021/04/15 10:07:05;;;;;;;3.80;3.47;;;16.20;40.70;;;;;;5099892;28;20183;-51
2021/04/15 10:09:33;;;;;;;3.90;3.10;;;15.30;40.20;;;;;;5109874;28;20666;-55
2021/04/15 10:12:11;;;;;;;4.00;3.60;;;14.70;40.60;;;;;;5109564;27;20953;-52
2021/04/15 10:14:37;;;;;;;3.90;3.50;;;13.70;42.10;;;;;;5118391;27;20183;-52
2021/04/15 10:17:22;;;;;;;2.80;2.60;;;13.30;42.40;;;;;;5110341;28;20694;-52
2021/04/15 10:20:06;;;;;;;5.28;3.35;;;13.60;42.50;;;;;;5102983;28;20190;-52
2021/04/15 10:23:01;;;;;;;2.75;2.55;;;13.40;42.30;;;;;;5104072;28;20298;-52
2021/04/15 10:25:38;;;;;;;3.00;2.67;;;13.30;41.80;;;;;;5112912;27;20843;-52
2021/04/15 10:28:29;;;;;;;3.47;3.17;;;13.00;44.00;;;;;;5105153;28;20185;-52
2021/04/15 10:30:58;;;;;;;5.53;3.95;;;12.70;44.60;;;;;;5103445;28;20221;-51
2021/04/15 10:33:31;;;;;;;4.45;4.05;;;13.00;47.70;;;;;;5103135;28;20182;-51
2021/04/15 10:36:05;;;;;;;5.00;3.80;;;12.60;49.00;;;;;;5107114;28;20654;-52
2021/04/15 10:38:55;;;;;;;4.50;3.95;;;12.40;49.70;;;;;;5103671;28;20195;-52
2021/04/15 10:41:39;;;;;;;3.95;3.20;;;11.80;50.70;;;;;;5102276;28;20227;-52
2021/04/15 10:44:41;;;;;;;5.15;3.92;;;12.20;51.30;;;;;;5104557;28;20211;-52
2021/04/15 10:47:37;;;;;;;3.63;3.33;;;12.30;50.60;;;;;;5102718;28;20173;-52
2021/04/15 10:50:09;;;;;;;5.65;4.15;;;12.40;50.80;;;;;;5116329;27;20668;-52
2021/04/15 10:52:47;;;;;;;4.20;3.58;;;12.40;51.20;;;;;;5108739;28;20207;-53
2021/04/15 10:55:24;;;;;;;3.85;3.55;;;13.10;49.80;;;;;;5102799;28;20248;-52
2021/04/15 10:57:52;;;;;;;4.95;3.63;;;13.80;47.30;;;;;;5101539;28;20215;-52
2021/04/15 11:00:31;;;;;;;3.88;3.35;;;14.40;45.70;;;;;;5098800;28;20754;-53
2021/04/15 11:03:19;;;;;;;4.05;3.65;;;14.00;45.30;;;;;;5105538;28;20655;-53
2021/04/15 11:05:48;;;;;;;4.13;3.30;;;13.20;45.30;;;;;;5102664;28;20242;-53
2021/04/15 11:08:26;;;;;;;5.32;3.83;;;12.70;45.60;;;;;;5102702;28;20423;-50
2021/04/15 11:11:28;;;;;;;4.13;3.20;;;12.60;46.90;;;;;;5103815;27;20197;-52
2021/04/15 11:14:06;;;;;;;3.25;2.95;;;12.30;46.70;;;;;;5102385;28;20275;-51
2021/04/15 11:16:33;;;;;;;3.95;3.53;;;12.00;46.10;;;;;;5100598;28;20230;-52
2021/04/15 11:19:10;;;;;;;3.90;3.22;;;12.10;46.70;;;;;;5107399;28;20906;-53
2021/04/15 11:21:39;;;;;;;3.60;3.22;;;12.40;46.80;;;;;;5107965;28;20632;-52
2021/04/15 11:24:29;;;;;;;4.53;3.15;;;12.60;47.20;;;;;;5099453;28;20281;-53
2021/04/15 11:26:58;;;;;;;3.97;3.67;;;12.80;47.20;;;;;;5121883;27;20479;-53
2021/04/15 11:29:50;;;;;;;4.53;3.05;;;13.00;46.80;;;;;;5097979;28;20219;-52
2021/04/15 11:32:34;;;;;;;3.40;3.10;;;12.80;47.00;;;;;;5104371;28;20223;-51
2021/04/15 11:35:19;;;;;;;3.47;2.80;;;12.40;47.00;;;;;;5103203;28;20282;-51
2021/04/15 11:37:48;;;;;;;3.20;2.97;;;11.80;46.90;;;;;;5107019;28;20184;-53
2021/04/15 11:40:37;;;;;;;3.35;3.05;;;11.60;47.60;;;;;;5105837;28;20190;-51
2021/04/15 11:43:24;;;;;;;3.42;3.13;;;11.60;48.30;;;;;;5102349;28;20184;-51
2021/04/15 11:45:50;;;;;;;5.05;3.70;;;11.20;48.80;;;;;;5104342;28;20582;-52
2021/04/15 11:48:23;;;;;;;6.22;3.45;;;11.20;49.40;;;;;;5103866;28;20180;-51
2021/04/15 11:51:08;;;;;;;4.00;3.60;;;10.80;51.10;;;;;;5124633;27;20203;-52
2021/04/15 11:53:52;;;;;;;2.80;2.60;;;10.70;51.80;;;;;;5107026;28;20232;-54
2021/04/15 11:56:23;;;;;;;3.10;2.53;;;11.60;50.60;;;;;;5105754;28;20232;-53
2021/04/15 11:58:50;;;;;;;3.45;3.03;;;12.00;49.90;;;;;;5105302;28;20190;-53
2021/04/15 12:01:28;;;;;;;4.03;2.80;;;11.90;49.60;;;;;;5106263;28;20232;-51
2021/04/15 12:04:00;;;;;;;3.58;3.28;;;11.80;49.00;;;;;;5100388;28;20676;-52
2021/04/15 12:06:39;;;;;;;3.05;2.65;;;11.70;48.40;;;;;;5103916;28;20655;-51
2021/04/15 12:09:07;;;;;;;3.47;3.00;;;11.90;49.00;;;;;;5104370;28;20176;-51
2021/04/15 12:11:44;;;;;;;3.10;2.85;;;12.00;49.50;;;;;;5104457;28;20231;-52
2021/04/15 12:14:13;;;;;;;2.83;2.50;;;11.70;47.60;;;;;;5106175;28;20175;-52
2021/04/15 12:16:58;;;;;;;3.60;3.05;;;11.60;46.60;;;;;;5102843;28;20228;-54
2021/04/15 12:19:29;;;;;;;4.20;3.00;;;11.80;46.60;;;;;;5113252;28;20182;-56
2021/04/15 12:21:55;;;;;;;3.10;2.80;;;11.60;45.50;;;;;;5109718;28;20285;-53
2021/04/15 12:24:45;;;;;;;3.50;3.20;;;12.00;45.60;;;;;;5107851;28;20214;-52
2021/04/15 12:27:22;;;;;;;2.90;2.65;;;12.10;45.30;;;;;;5102078;28;20733;-53
2021/04/15 12:30:00;;;;;;;3.47;3.20;;;12.00;44.80;;;;;;5106069;28;20218;-55
2021/04/15 12:32:57;;;;;;;3.45;2.50;;;12.10;46.00;;;;;;5105035;28;20690;-50
2021/04/15 12:35:28;;;;;;;2.90;2.55;;;12.40;46.50;;;;;;5104140;28;20198;-51
2021/04/15 12:37:54;;;;;;;3.28;2.75;;;12.20;45.90;;;;;;5107305;28;20656;-51
2021/04/15 12:40:22;;;;;;;3.77;3.20;;;12.10;46.00;;;;;;5099257;28;20264;-50
2021/04/15 12:42:52;;;;;;;3.97;2.90;;;11.90;47.10;;;;;;5106175;28;20585;-50
2021/04/15 12:45:44;;;;;;;4.05;3.40;;;11.80;44.10;;;;;;5105545;28;20662;-52
2021/04/15 12:48:14;;;;;;;3.75;3.10;;;11.10;44.40;;;;;;5107098;28;20198;-53
2021/04/15 12:50:41;;;;;;;4.47;2.97;;;11.60;46.20;;;;;;5110708;28;20274;-53
2021/04/15 12:53:07;;;;;;;2.70;2.50;;;11.60;45.70;;;;;;5104752;28;20412;-53
2021/04/15 12:55:34;;;;;;;3.47;3.17;;;12.10;45.20;;;;;;5107897;28;20192;-54
2021/04/15 12:58:01;;;;;;;3.55;3.25;;;12.00;44.40;;;;;;5110224;28;20252;-55
2021/04/15 13:00:47;;;;;;;4.57;2.95;;;12.10;45.70;;;;;;5110427;28;20181;-54
2021/04/15 13:03:24;;;;;;;3.55;3.20;;;12.00;46.50;;;;;;5106606;28;20188;-52
2021/04/15 13:06:18;;;;;;;3.17;2.80;;;12.10;46.50;;;;;;5108941;28;20676;-53
2021/04/15 13:08:54;;;;;;;4.95;3.35;;;11.70;46.20;;;;;;5098294;28;20210;-53
2021/04/15 13:11:20;;;;;;;3.05;2.72;;;11.80;47.10;;;;;;5110251;28;20201;-53
2021/04/15 13:14:04;;;;;;;3.33;3.00;;;11.60;46.90;;;;;;5101865;28;20176;-54
2021/04/15 13:16:41;;;;;;;3.67;3.35;;;11.60;46.70;;;;;;5108447;28;20215;-54
2021/04/15 13:19:09;;;;;;;3.30;3.00;;;11.40;46.80;;;;;;5105072;28;20281;-56
2021/04/15 13:21:39;;;;;;;3.90;3.60;;;11.20;47.40;;;;;;5103624;28;20709;-51
2021/04/15 13:24:42;;;;;;;5.10;2.80;;;11.10;49.00;;;;;;5109739;28;20232;-53
2021/04/15 13:30:21;;;;;;;4.97;3.40;;;11.00;53.80;;;;;;5096567;28;20184;-55
2021/04/15 13:33:10;;;;;;;4.07;3.22;;;10.70;53.70;;;;;;5106742;28;20258;-55
2021/04/15 13:35:42;;;;;;;3.30;2.97;;;11.00;53.50;;;;;;5052447;28;20208;-53
2021/04/15 13:38:37;;;;;;;3.55;2.97;;;10.90;53.60;;;;;;5109411;28;20418;-55
2021/04/15 13:41:23;;;;;;;3.50;3.20;;;10.70;54.60;;;;;;5109716;28;20200;-54
2021/04/15 13:43:52;;;;;;;3.40;3.10;;;10.80;54.30;;;;;;5107950;28;20658;-51
2021/04/15 13:46:31;;;;;;;4.22;3.30;;;10.60;54.30;;;;;;5102023;28;20211;-52
2021/04/15 13:49:09;;;;;;;3.53;3.22;;;10.70;53.10;;;;;;5102874;28;20183;-52